createdAt,value
2016-10-22T00:00:08.286Z,6.64
2016-10-22T00:01:08.069Z,6.69
2016-10-22T00:02:07.889Z,6.61
2016-10-22T00:03:07.471Z,6.69
2016-10-22T00:04:07.227Z,6.64
2016-10-22T00:05:07.756Z,6.69
2016-10-22T00:06:07.443Z,6.75
2016-10-22T00:07:07.230Z,6.72
2016-10-22T00:08:07.849Z,6.52
2016-10-22T00:09:07.438Z,6.58
2016-10-22T00:10:08.095Z,6.54
2016-10-22T00:11:07.636Z,6.64
2016-10-22T00:12:07.272Z,6.57
2016-10-22T00:13:07.689Z,6.67
2016-10-22T00:14:07.281Z,6.77
2016-10-22T00:15:07.901Z,6.68
2016-10-22T00:16:07.445Z,6.63
2016-10-22T00:17:08.145Z,6.68
2016-10-22T00:18:07.696Z,6.55
2016-10-22T00:19:07.269Z,6.65
2016-10-22T00:20:07.786Z,6.67
2016-10-22T00:21:07.382Z,6.69
2016-10-22T00:22:07.939Z,6.72
2016-10-22T00:23:07.604Z,6.61
2016-10-22T00:24:07.108Z,6.65
2016-10-22T00:25:07.704Z,6.73
2016-10-22T00:26:07.368Z,6.79
2016-10-22T00:27:07.947Z,6.64
2016-10-22T00:28:07.447Z,6.74
2016-10-22T00:29:07.957Z,6.76
2016-10-22T00:30:07.914Z,6.67
2016-10-22T00:31:07.656Z,6.61
2016-10-22T00:32:07.296Z,6.62
2016-10-22T00:33:07.806Z,6.63
2016-10-22T00:34:08.857Z,6.67
2016-10-22T00:35:08.418Z,6.72
2016-10-22T00:36:08.165Z,6.69
2016-10-22T00:37:07.378Z,6.59
2016-10-22T00:38:07.978Z,6.71
2016-10-22T00:39:07.631Z,6.72
2016-10-22T00:40:07.208Z,6.67
2016-10-22T00:41:07.338Z,6.62
2016-10-22T00:42:07.922Z,6.66
2016-10-22T00:43:07.900Z,6.67
2016-10-22T00:44:07.457Z,6.63
2016-10-22T00:45:07.947Z,6.74
2016-10-22T00:46:07.427Z,6.67
2016-10-22T00:47:13.601Z,6.53
2016-10-22T00:48:07.130Z,6.63
2016-10-22T00:49:07.697Z,6.55
2016-10-22T00:50:07.240Z,6.64
2016-10-22T00:51:07.848Z,6.62
2016-10-22T00:52:07.343Z,6.66
2016-10-22T00:53:07.787Z,6.66
2016-10-22T00:54:08.036Z,6.76
2016-10-22T00:55:07.605Z,6.72
2016-10-22T00:56:07.116Z,6.78
2016-10-22T00:57:07.623Z,6.81
2016-10-22T00:58:07.204Z,6.78
2016-10-22T00:59:07.837Z,6.77
2016-10-22T01:00:07.387Z,6.80
2016-10-22T01:01:07.954Z,6.82
2016-10-22T01:02:07.693Z,6.80
2016-10-22T01:03:07.104Z,6.78
2016-10-22T01:04:07.628Z,6.76
2016-10-22T01:05:07.212Z,6.67
2016-10-22T01:06:07.993Z,6.77
2016-10-22T01:07:07.760Z,6.65
2016-10-22T01:08:07.275Z,6.77
2016-10-22T01:09:07.840Z,6.78
2016-10-22T01:10:07.266Z,6.81
2016-10-22T01:11:07.760Z,6.77
2016-10-22T01:12:08.109Z,6.80
2016-10-22T01:13:07.603Z,6.74
2016-10-22T01:14:07.157Z,6.64
2016-10-22T01:15:07.948Z,6.67
2016-10-22T01:16:07.527Z,6.60
2016-10-22T01:17:08.154Z,6.63
2016-10-22T01:18:07.667Z,6.73
2016-10-22T01:19:07.913Z,6.68
2016-10-22T01:20:07.461Z,6.69
2016-10-22T01:21:07.524Z,6.75
2016-10-22T01:22:08.007Z,6.76
2016-10-22T01:23:07.576Z,6.76
2016-10-22T01:24:08.001Z,6.81
2016-10-22T01:25:07.275Z,6.78
2016-10-22T01:26:07.331Z,6.71
2016-10-22T01:27:07.960Z,6.57
2016-10-22T01:28:07.563Z,6.69
2016-10-22T01:29:08.194Z,6.75
2016-10-22T01:30:07.403Z,6.69
2016-10-22T01:31:07.877Z,6.74
2016-10-22T01:32:08.164Z,6.77
2016-10-22T01:33:07.860Z,6.69
2016-10-22T01:34:07.514Z,6.70
2016-10-22T01:35:08.219Z,6.65
2016-10-22T01:36:07.924Z,6.67
2016-10-22T01:37:07.482Z,6.82
2016-10-22T01:38:07.862Z,6.81
2016-10-22T01:39:07.385Z,6.78
2016-10-22T01:40:08.004Z,6.72
2016-10-22T01:41:07.680Z,6.65
2016-10-22T01:42:08.128Z,6.59
2016-10-22T01:43:07.732Z,6.60
2016-10-22T01:44:08.075Z,6.74
2016-10-22T01:45:07.625Z,6.77
2016-10-22T01:46:07.247Z,6.81
2016-10-22T01:47:07.206Z,6.77
2016-10-22T01:48:08.029Z,6.74
2016-10-22T01:49:07.536Z,6.75
2016-10-22T01:50:07.703Z,6.72
2016-10-22T01:51:07.154Z,6.72
2016-10-22T01:52:07.655Z,6.80
2016-10-22T01:53:08.038Z,6.84
2016-10-22T01:54:07.553Z,6.72
2016-10-22T01:55:07.326Z,6.78
2016-10-22T01:56:07.893Z,6.82
2016-10-22T01:57:07.483Z,6.78
2016-10-22T01:58:08.234Z,6.83
2016-10-22T01:59:07.869Z,6.82
2016-10-22T02:00:07.425Z,6.82
2016-10-22T02:01:07.835Z,6.70
2016-10-22T02:02:07.312Z,6.52
2016-10-22T02:03:07.775Z,6.62
2016-10-22T02:04:07.382Z,6.52
2016-10-22T02:05:07.867Z,6.58
2016-10-22T02:06:07.643Z,6.69
2016-10-22T02:07:07.175Z,6.77
2016-10-22T02:08:08.178Z,6.84
2016-10-22T02:09:07.196Z,6.87
2016-10-22T02:10:07.748Z,6.72
2016-10-22T02:11:08.241Z,6.73
2016-10-22T02:12:07.885Z,6.82
2016-10-22T02:13:07.449Z,6.87
2016-10-22T02:14:08.066Z,6.84
2016-10-22T02:15:07.627Z,6.87
2016-10-22T02:16:07.110Z,6.86
2016-10-22T02:17:07.810Z,6.73
2016-10-22T02:18:07.418Z,6.78
2016-10-22T02:19:08.009Z,6.81
2016-10-22T02:20:07.471Z,6.89
2016-10-22T02:21:07.921Z,6.94
2016-10-22T02:22:07.579Z,6.92
2016-10-22T02:23:07.155Z,6.97
2016-10-22T02:24:07.720Z,7.03
2016-10-22T02:25:07.192Z,6.78
2016-10-22T02:26:07.657Z,6.75
2016-10-22T02:27:07.540Z,6.83
2016-10-22T02:28:07.784Z,6.89
2016-10-22T02:29:07.477Z,6.71
2016-10-22T02:30:08.111Z,6.83
2016-10-22T02:31:08.002Z,6.80
2016-10-22T02:32:07.975Z,6.70
2016-10-22T02:33:07.463Z,6.85
2016-10-22T02:34:08.031Z,6.78
2016-10-22T02:35:08.071Z,6.84
2016-10-22T02:36:08.209Z,6.63
2016-10-22T02:37:07.750Z,6.62
2016-10-22T02:38:07.435Z,6.66
2016-10-22T02:39:07.997Z,6.82
2016-10-22T02:40:07.531Z,6.83
2016-10-22T02:41:08.113Z,6.89
2016-10-22T02:42:08.117Z,6.77
2016-10-22T02:43:07.708Z,6.79
2016-10-22T02:44:07.277Z,6.79
2016-10-22T02:45:08.018Z,6.75
2016-10-22T02:46:07.625Z,6.82
2016-10-22T02:47:07.297Z,6.87
2016-10-22T02:48:07.749Z,6.91
2016-10-22T02:49:07.935Z,6.86
2016-10-22T02:50:07.577Z,6.88
2016-10-22T02:51:07.208Z,6.76
2016-10-22T02:52:07.666Z,6.84
2016-10-22T02:53:07.240Z,6.82
2016-10-22T02:54:07.835Z,6.80
2016-10-22T02:55:07.395Z,6.81
2016-10-22T02:56:08.027Z,6.82
2016-10-22T02:57:07.656Z,6.69
2016-10-22T02:58:07.973Z,6.73
2016-10-22T02:59:08.011Z,6.71
2016-10-22T03:00:07.518Z,6.69
2016-10-22T03:01:07.803Z,6.62
2016-10-22T03:02:07.435Z,6.58
2016-10-22T03:03:08.192Z,6.51
2016-10-22T03:04:07.854Z,6.51
2016-10-22T03:05:07.460Z,6.60
2016-10-22T03:06:08.078Z,6.61
2016-10-22T03:07:07.948Z,6.69
2016-10-22T03:08:07.438Z,6.60
2016-10-22T03:09:08.070Z,6.49
2016-10-22T03:10:07.672Z,6.57
2016-10-22T03:11:07.401Z,6.64
2016-10-22T03:12:08.040Z,6.65
2016-10-22T03:13:07.612Z,6.57
2016-10-22T03:14:07.097Z,6.53
2016-10-22T03:15:07.654Z,6.49
2016-10-22T03:16:07.796Z,6.42
2016-10-22T03:17:07.573Z,6.48
2016-10-22T03:18:07.253Z,6.53
2016-10-22T03:19:07.806Z,6.49
2016-10-22T03:20:07.465Z,6.50
2016-10-22T03:21:08.009Z,6.56
2016-10-22T03:22:07.757Z,6.60
2016-10-22T03:23:07.308Z,6.62
2016-10-22T03:24:07.805Z,6.50
2016-10-22T03:25:07.278Z,6.49
2016-10-22T03:26:07.793Z,6.60
2016-10-22T03:27:07.287Z,6.41
2016-10-22T03:28:07.918Z,6.31
2016-10-22T03:29:07.453Z,6.37
2016-10-22T03:30:07.902Z,6.46
2016-10-22T03:31:07.566Z,6.50
2016-10-22T03:32:08.274Z,6.43
2016-10-22T03:33:07.743Z,6.20
2016-10-22T03:34:07.540Z,6.25
2016-10-22T03:35:07.436Z,6.37
2016-10-22T03:36:08.157Z,6.37
2016-10-22T03:37:07.716Z,6.27
2016-10-22T03:38:07.611Z,6.27
2016-10-22T03:39:07.390Z,6.43
2016-10-22T03:40:07.991Z,6.41
2016-10-22T03:41:07.688Z,6.34
2016-10-22T03:42:07.477Z,6.47
2016-10-22T03:43:08.177Z,6.54
2016-10-22T03:44:07.852Z,6.60
2016-10-22T03:45:07.540Z,6.53
2016-10-22T03:46:08.181Z,6.60
2016-10-22T03:47:07.784Z,6.52
2016-10-22T03:48:07.341Z,6.48
2016-10-22T03:49:07.882Z,6.38
2016-10-22T03:50:07.666Z,6.40
2016-10-22T03:51:07.166Z,6.41
2016-10-22T03:52:07.724Z,6.36
2016-10-22T03:53:07.697Z,6.45
2016-10-22T03:54:07.448Z,6.45
2016-10-22T03:55:07.794Z,6.44
2016-10-22T03:56:07.434Z,6.28
2016-10-22T03:57:08.636Z,6.26
2016-10-22T03:58:07.192Z,6.27
2016-10-22T03:59:07.774Z,6.19
2016-10-22T04:00:07.398Z,6.13
2016-10-22T04:01:08.017Z,6.16
2016-10-22T04:02:07.491Z,6.22
2016-10-22T04:03:07.531Z,6.26
2016-10-22T04:04:08.128Z,6.27
2016-10-22T04:05:07.674Z,6.28
2016-10-22T04:06:07.136Z,6.30
2016-10-22T04:07:07.650Z,6.32
2016-10-22T04:08:07.178Z,6.27
2016-10-22T04:09:07.800Z,6.31
2016-10-22T04:10:07.303Z,6.36
2016-10-22T04:11:07.803Z,6.24
2016-10-22T04:12:07.282Z,6.25
2016-10-22T04:13:07.773Z,6.21
2016-10-22T04:14:07.323Z,6.13
2016-10-22T04:15:07.913Z,6.07
2016-10-22T04:16:07.682Z,6.05
2016-10-22T04:17:07.435Z,6.00
2016-10-22T04:18:07.985Z,6.01
2016-10-22T04:19:07.479Z,6.06
2016-10-22T04:20:08.064Z,6.04
2016-10-22T04:21:07.687Z,6.04
2016-10-22T04:22:07.168Z,6.04
2016-10-22T04:23:07.712Z,6.07
2016-10-22T04:24:07.826Z,6.10
2016-10-22T04:25:10.269Z,6.09
2016-10-22T04:26:07.431Z,6.06
2016-10-22T04:27:07.989Z,6.06
2016-10-22T04:28:07.527Z,5.97
2016-10-22T04:29:08.318Z,5.98
2016-10-22T04:30:07.919Z,6.10
2016-10-22T04:31:07.419Z,6.11
2016-10-22T04:32:07.934Z,6.11
2016-10-22T04:33:08.143Z,6.04
2016-10-22T04:34:07.767Z,6.12
2016-10-22T04:35:07.367Z,6.14
2016-10-22T04:36:07.917Z,6.10
2016-10-22T04:37:07.548Z,6.13
2016-10-22T04:38:08.105Z,6.17
2016-10-22T04:39:07.557Z,6.21
2016-10-22T04:40:08.297Z,6.21
2016-10-22T04:41:07.826Z,6.26
2016-10-22T04:42:07.420Z,6.17
2016-10-22T04:43:08.018Z,6.09
2016-10-22T04:44:07.572Z,6.13
2016-10-22T04:45:07.120Z,6.12
2016-10-22T04:46:07.819Z,6.12
2016-10-22T04:47:07.409Z,6.10
2016-10-22T04:48:07.890Z,5.97
2016-10-22T04:49:07.447Z,5.97
2016-10-22T04:50:07.956Z,6.02
2016-10-22T04:51:07.420Z,6.00
2016-10-22T04:52:07.930Z,6.03
2016-10-22T04:53:07.366Z,6.08
2016-10-22T04:54:07.167Z,6.13
2016-10-22T04:55:07.637Z,6.09
2016-10-22T04:56:07.197Z,6.07
2016-10-22T04:57:08.090Z,6.04
2016-10-22T04:58:07.749Z,6.01
2016-10-22T04:59:07.420Z,5.98
2016-10-22T05:00:07.953Z,5.96
2016-10-22T05:01:07.626Z,5.94
2016-10-22T05:02:07.229Z,5.92
2016-10-22T05:03:07.892Z,5.91
2016-10-22T05:04:07.484Z,5.97
2016-10-22T05:05:08.068Z,5.97
2016-10-22T05:06:07.948Z,5.92
2016-10-22T05:07:07.398Z,5.96
2016-10-22T05:08:08.094Z,5.96
2016-10-22T05:09:07.620Z,6.01
2016-10-22T05:10:07.084Z,6.05
2016-10-22T05:11:07.557Z,6.04
2016-10-22T05:12:08.150Z,6.13
2016-10-22T05:13:07.710Z,6.10
2016-10-22T05:14:07.279Z,6.18
2016-10-22T05:15:08.027Z,6.15
2016-10-22T05:16:07.788Z,6.15
2016-10-22T05:17:07.717Z,6.15
2016-10-22T05:18:07.398Z,6.25
2016-10-22T05:19:08.070Z,6.28
2016-10-22T05:20:07.619Z,6.23
2016-10-22T05:21:07.421Z,6.21
2016-10-22T05:22:08.232Z,6.16
2016-10-22T05:23:07.850Z,6.04
2016-10-22T05:24:07.665Z,5.97
2016-10-22T05:25:07.247Z,5.99
2016-10-22T05:26:07.801Z,6.01
2016-10-22T05:27:07.330Z,5.90
2016-10-22T05:28:07.889Z,5.90
2016-10-22T05:29:07.590Z,5.84
2016-10-22T05:30:07.247Z,5.90
2016-10-22T05:31:07.808Z,5.88
2016-10-22T05:32:07.339Z,5.86
2016-10-22T05:33:07.931Z,5.75
2016-10-22T05:34:08.550Z,5.76
2016-10-22T05:35:08.082Z,5.86
2016-10-22T05:36:07.699Z,5.79
2016-10-22T05:37:07.321Z,5.82
2016-10-22T05:38:07.966Z,5.81
2016-10-22T05:39:07.557Z,5.76
2016-10-22T05:40:08.071Z,5.71
2016-10-22T05:41:07.884Z,5.73
2016-10-22T05:42:07.433Z,5.70
2016-10-22T05:43:08.119Z,5.65
2016-10-22T05:44:07.629Z,5.60
2016-10-22T05:45:07.151Z,5.65
2016-10-22T05:46:07.877Z,5.70
2016-10-22T05:47:07.498Z,5.74
2016-10-22T05:48:07.963Z,5.76
2016-10-22T05:49:07.552Z,5.79
2016-10-22T05:50:08.121Z,5.83
2016-10-22T05:51:07.841Z,5.76
2016-10-22T05:52:07.959Z,5.68
2016-10-22T05:53:07.777Z,5.68
2016-10-22T05:54:07.425Z,5.69
2016-10-22T05:55:07.996Z,5.65
2016-10-22T05:56:07.608Z,5.56
2016-10-22T05:57:07.228Z,5.54
2016-10-22T05:58:07.703Z,5.52
2016-10-22T05:59:07.354Z,5.53
2016-10-22T06:00:08.016Z,5.53
2016-10-22T06:01:07.629Z,5.44
2016-10-22T06:02:07.148Z,5.45
2016-10-22T06:03:07.760Z,5.46
2016-10-22T06:04:07.342Z,5.51
2016-10-22T06:05:07.964Z,5.54
2016-10-22T06:06:07.481Z,5.59
2016-10-22T06:07:08.050Z,5.64
2016-10-22T06:08:07.542Z,5.61
2016-10-22T06:09:07.548Z,5.51
2016-10-22T06:10:07.152Z,5.50
2016-10-22T06:11:07.747Z,5.41
2016-10-22T06:12:07.678Z,5.41
2016-10-22T06:13:07.504Z,5.39
2016-10-22T06:14:07.225Z,5.41
2016-10-22T06:15:07.891Z,5.41
2016-10-22T06:16:07.418Z,5.37
2016-10-22T06:17:08.081Z,5.33
2016-10-22T06:18:07.583Z,5.42
2016-10-22T06:19:07.170Z,5.38
2016-10-22T06:20:07.674Z,5.40
2016-10-22T06:21:07.497Z,5.44
2016-10-22T06:22:08.107Z,5.64
2016-10-22T06:23:07.717Z,5.74
2016-10-22T06:24:07.199Z,5.71
2016-10-22T06:25:07.707Z,5.66
2016-10-22T06:26:07.325Z,5.57
2016-10-22T06:27:07.866Z,5.67
2016-10-22T06:28:07.414Z,5.77
2016-10-22T06:29:08.032Z,5.77
2016-10-22T06:30:07.665Z,5.62
2016-10-22T06:31:07.346Z,5.66
2016-10-22T06:32:07.922Z,5.58
2016-10-22T06:33:07.540Z,5.57
2016-10-22T06:34:08.088Z,5.54
2016-10-22T06:35:07.738Z,5.57
2016-10-22T06:36:07.474Z,5.66
2016-10-22T06:37:08.063Z,5.65
2016-10-22T06:38:07.161Z,5.71
2016-10-22T06:39:07.740Z,5.66
2016-10-22T06:40:07.315Z,5.76
2016-10-22T06:41:07.932Z,5.71
2016-10-22T06:42:07.353Z,5.77
2016-10-22T06:43:07.799Z,5.87
2016-10-22T06:44:07.419Z,5.81
2016-10-22T06:45:07.735Z,5.81
2016-10-22T06:46:07.920Z,5.80
2016-10-22T06:47:07.474Z,5.86
2016-10-22T06:48:07.945Z,5.90
2016-10-22T06:49:07.451Z,5.96
2016-10-22T06:50:08.035Z,5.98
2016-10-22T06:51:07.606Z,6.03
2016-10-22T06:52:07.067Z,5.99
2016-10-22T06:53:07.743Z,6.02
2016-10-22T06:54:07.363Z,5.97
2016-10-22T06:55:07.466Z,6.05
2016-10-22T06:56:08.105Z,6.10
2016-10-22T06:57:07.462Z,6.20
2016-10-22T06:58:08.127Z,6.16
2016-10-22T06:59:07.775Z,6.11
2016-10-22T07:00:07.438Z,6.16
2016-10-22T07:01:07.955Z,6.13
2016-10-22T07:02:07.489Z,6.13
2016-10-22T07:03:08.079Z,6.11
2016-10-22T07:04:07.860Z,6.18
2016-10-22T07:05:07.526Z,6.21
2016-10-22T07:06:08.145Z,5.99
2016-10-22T07:07:07.703Z,6.11
2016-10-22T07:08:07.248Z,6.30
2016-10-22T07:09:07.829Z,6.43
2016-10-22T07:10:07.522Z,6.53
2016-10-22T07:11:08.243Z,6.66
2016-10-22T07:12:07.816Z,6.75
2016-10-22T07:13:07.331Z,6.79
2016-10-22T07:14:07.847Z,6.72
2016-10-22T07:15:07.488Z,6.78
2016-10-22T07:16:07.976Z,6.82
2016-10-22T07:17:07.738Z,6.81
2016-10-22T07:18:07.244Z,6.82
2016-10-22T07:19:07.812Z,6.77
2016-10-22T07:20:07.373Z,6.81
2016-10-22T07:21:07.866Z,6.88
2016-10-22T07:22:07.401Z,6.91
2016-10-22T07:23:07.963Z,6.91
2016-10-22T07:24:07.482Z,6.90
2016-10-22T07:25:08.342Z,6.97
2016-10-22T07:26:08.182Z,6.96
2016-10-22T07:27:07.772Z,7.10
2016-10-22T07:28:07.353Z,7.20
2016-10-22T07:29:07.935Z,7.20
2016-10-22T07:30:07.471Z,7.23
2016-10-22T07:31:08.167Z,7.26
2016-10-22T07:32:07.698Z,7.25
2016-10-22T07:33:08.129Z,7.26
2016-10-22T07:34:07.565Z,7.29
2016-10-22T07:35:07.285Z,7.31
2016-10-22T07:36:07.945Z,7.31
2016-10-22T07:37:07.916Z,7.28
2016-10-22T07:38:07.346Z,7.28
2016-10-22T07:39:07.916Z,7.29
2016-10-22T07:40:07.499Z,7.27
2016-10-22T07:41:08.150Z,7.27
2016-10-22T07:42:07.724Z,7.25
2016-10-22T07:43:07.422Z,7.40
2016-10-22T07:44:08.096Z,7.45
2016-10-22T07:45:07.211Z,7.48
2016-10-22T07:46:07.723Z,7.61
2016-10-22T07:47:07.466Z,7.64
2016-10-22T07:48:08.064Z,7.65
2016-10-22T07:49:07.621Z,7.66
2016-10-22T07:50:07.034Z,7.72
2016-10-22T07:51:07.619Z,7.71
2016-10-22T07:52:07.086Z,7.76
2016-10-22T07:53:07.562Z,7.82
2016-10-22T07:54:08.034Z,7.73
2016-10-22T07:55:07.621Z,7.82
2016-10-22T07:56:07.760Z,7.86
2016-10-22T07:57:07.319Z,7.90
2016-10-22T07:58:07.847Z,7.79
2016-10-22T07:59:07.475Z,7.82
2016-10-22T08:00:08.290Z,7.80
2016-10-22T08:01:07.832Z,7.85
2016-10-22T08:02:07.317Z,7.88
2016-10-22T08:03:07.891Z,7.89
2016-10-22T08:04:07.336Z,7.84
2016-10-22T08:05:07.940Z,7.90
2016-10-22T08:06:07.479Z,7.97
2016-10-22T08:07:07.968Z,7.94
2016-10-22T08:08:07.473Z,8.02
2016-10-22T08:09:07.946Z,8.09
2016-10-22T08:10:07.479Z,8.17
2016-10-22T08:11:08.050Z,8.02
2016-10-22T08:12:07.663Z,8.06
2016-10-22T08:13:07.314Z,8.02
2016-10-22T08:14:07.832Z,8.10
2016-10-22T08:15:07.324Z,8.10
2016-10-22T08:16:07.890Z,8.06
2016-10-22T08:17:07.584Z,8.16
2016-10-22T08:18:07.524Z,8.10
2016-10-22T08:19:08.164Z,8.15
2016-10-22T08:20:07.777Z,8.13
2016-10-22T08:21:07.451Z,8.16
2016-10-22T08:22:08.442Z,8.20
2016-10-22T08:23:07.557Z,8.16
2016-10-22T08:24:08.166Z,8.17
2016-10-22T08:25:07.872Z,8.19
2016-10-22T08:26:07.536Z,8.08
2016-10-22T08:27:08.086Z,8.04
2016-10-22T08:28:07.711Z,8.09
2016-10-22T08:29:07.355Z,8.04
2016-10-22T08:30:08.108Z,8.17
2016-10-22T08:31:07.916Z,8.27
2016-10-22T08:32:08.270Z,8.27
2016-10-22T08:33:07.921Z,8.28
2016-10-22T08:34:07.569Z,8.30
2016-10-22T08:35:07.191Z,8.35
2016-10-22T08:36:07.788Z,8.41
2016-10-22T08:37:08.316Z,8.36
2016-10-22T08:38:07.802Z,8.29
2016-10-22T08:39:07.422Z,8.38
2016-10-22T08:40:07.965Z,8.30
2016-10-22T08:41:07.685Z,8.27
2016-10-22T08:42:07.176Z,8.37
2016-10-22T08:43:07.817Z,8.23
2016-10-22T08:44:07.330Z,8.30
2016-10-22T08:45:07.942Z,8.35
2016-10-22T08:46:07.479Z,8.45
2016-10-22T08:47:08.055Z,8.47
2016-10-22T08:48:07.617Z,8.49
2016-10-22T08:49:07.232Z,8.51
2016-10-22T08:50:07.833Z,8.45
2016-10-22T08:51:07.635Z,8.45
2016-10-22T08:52:07.192Z,8.48
2016-10-22T08:53:07.703Z,8.44
2016-10-22T08:54:07.261Z,8.53
2016-10-22T08:55:07.832Z,8.57
2016-10-22T08:56:07.434Z,8.55
2016-10-22T08:57:07.896Z,8.48
2016-10-22T08:58:07.464Z,8.42
2016-10-22T08:59:08.234Z,8.56
2016-10-22T09:00:07.861Z,8.63
2016-10-22T09:01:07.342Z,8.71
2016-10-22T09:02:07.921Z,8.58
2016-10-22T09:03:07.522Z,8.61
2016-10-22T09:04:08.376Z,8.71
2016-10-22T09:05:07.852Z,8.75
2016-10-22T09:06:07.755Z,8.72
2016-10-22T09:07:07.267Z,8.77
2016-10-22T09:08:07.804Z,8.81
2016-10-22T09:09:07.261Z,8.75
2016-10-22T09:10:07.851Z,8.81
2016-10-22T09:11:07.530Z,8.78
2016-10-22T09:12:08.139Z,8.90
2016-10-22T09:13:07.717Z,8.95
2016-10-22T09:14:07.314Z,9.06
2016-10-22T09:15:07.882Z,8.99
2016-10-22T09:16:07.346Z,8.86
2016-10-22T09:17:08.127Z,8.93
2016-10-22T09:18:07.709Z,8.95
2016-10-22T09:19:07.248Z,8.97
2016-10-22T09:20:07.908Z,8.89
2016-10-22T09:21:07.664Z,8.89
2016-10-22T09:22:07.615Z,8.73
2016-10-22T09:23:07.221Z,8.73
2016-10-22T09:24:07.855Z,8.77
2016-10-22T09:25:07.533Z,8.66
2016-10-22T09:26:07.244Z,8.55
2016-10-22T09:27:07.928Z,8.42
2016-10-22T09:28:07.612Z,8.36
2016-10-22T09:29:07.535Z,8.37
2016-10-22T09:30:08.159Z,8.46
2016-10-22T09:31:07.783Z,8.47
2016-10-22T09:32:07.343Z,8.56
2016-10-22T09:33:07.994Z,8.67
2016-10-22T09:34:07.693Z,8.72
2016-10-22T09:35:07.306Z,8.83
2016-10-22T09:36:07.865Z,8.94
2016-10-22T09:37:07.498Z,8.96
2016-10-22T09:38:08.238Z,9.06
2016-10-22T09:39:07.856Z,9.09
2016-10-22T09:40:07.698Z,9.19
2016-10-22T09:41:07.314Z,9.13
2016-10-22T09:42:07.805Z,9.28
2016-10-22T09:43:07.477Z,9.40
2016-10-22T09:44:08.261Z,9.47
2016-10-22T09:45:08.077Z,9.55
2016-10-22T09:46:07.655Z,9.65
2016-10-22T09:47:07.266Z,9.62
2016-10-22T09:48:07.755Z,9.65
2016-10-22T09:49:07.273Z,9.74
2016-10-22T09:50:07.762Z,9.80
2016-10-22T09:51:07.292Z,9.89
2016-10-22T09:52:07.762Z,9.76
2016-10-22T09:53:07.352Z,9.80
2016-10-22T09:54:08.084Z,9.71
2016-10-22T09:55:07.846Z,9.86
2016-10-22T09:56:07.513Z,9.94
2016-10-22T09:57:08.121Z,9.97
2016-10-22T09:58:07.735Z,9.95
2016-10-22T09:59:07.364Z,10.00
2016-10-22T10:00:07.508Z,10.03
2016-10-22T10:01:08.128Z,10.07
2016-10-22T10:02:07.716Z,10.05
2016-10-22T10:03:07.347Z,10.13
2016-10-22T10:04:08.067Z,10.09
2016-10-22T10:05:07.647Z,10.17
2016-10-22T10:06:07.230Z,10.12
2016-10-22T10:07:07.908Z,10.16
2016-10-22T10:08:07.415Z,10.07
2016-10-22T10:09:08.020Z,10.07
2016-10-22T10:10:07.516Z,10.06
2016-10-22T10:11:08.027Z,10.02
2016-10-22T10:12:07.522Z,10.14
2016-10-22T10:13:08.095Z,10.03
2016-10-22T10:14:07.655Z,10.16
2016-10-22T10:15:07.187Z,10.21
2016-10-22T10:16:07.870Z,10.12
2016-10-22T10:17:07.629Z,10.19
2016-10-22T10:18:07.332Z,10.23
2016-10-22T10:19:07.907Z,9.99
2016-10-22T10:20:07.478Z,10.00
2016-10-22T10:21:08.286Z,10.17
2016-10-22T10:22:08.004Z,10.28
2016-10-22T10:23:07.979Z,10.36
2016-10-22T10:24:07.321Z,10.44
2016-10-22T10:25:07.949Z,10.34
2016-10-22T10:26:07.843Z,10.26
2016-10-22T10:27:07.500Z,10.14
2016-10-22T10:28:08.023Z,9.98
2016-10-22T10:29:07.652Z,9.98
2016-10-22T10:30:07.160Z,10.03
2016-10-22T10:31:07.644Z,10.14
2016-10-22T10:32:07.186Z,10.25
2016-10-22T10:33:07.644Z,10.28
2016-10-22T10:34:07.195Z,10.08
2016-10-22T10:35:07.847Z,10.21
2016-10-22T10:36:07.382Z,10.32
2016-10-22T10:37:07.993Z,10.22
2016-10-22T10:38:07.535Z,10.02
2016-10-22T10:39:08.126Z,10.00
2016-10-22T10:40:07.806Z,10.14
2016-10-22T10:41:07.293Z,10.21
2016-10-22T10:42:07.870Z,10.30
2016-10-22T10:43:07.421Z,10.36
2016-10-22T10:44:07.968Z,10.44
2016-10-22T10:45:07.514Z,10.50
2016-10-22T10:46:08.172Z,10.37
2016-10-22T10:47:07.887Z,10.37
2016-10-22T10:48:07.524Z,10.38
2016-10-22T10:49:07.733Z,10.54
2016-10-22T10:50:07.252Z,10.53
2016-10-22T10:51:07.897Z,10.59
2016-10-22T10:52:07.403Z,10.60
2016-10-22T10:53:08.015Z,10.64
2016-10-22T10:54:07.546Z,10.66
2016-10-22T10:55:07.287Z,10.62
2016-10-22T10:56:07.871Z,10.53
2016-10-22T10:57:07.506Z,10.41
2016-10-22T10:58:08.092Z,10.43
2016-10-22T10:59:07.849Z,10.51
2016-10-22T11:00:07.447Z,10.49
2016-10-22T11:01:07.961Z,10.57
2016-10-22T11:02:07.466Z,10.70
2016-10-22T11:03:08.172Z,10.75
2016-10-22T11:04:07.783Z,10.64
2016-10-22T11:05:07.411Z,10.62
2016-10-22T11:06:08.020Z,10.67
2016-10-22T11:07:07.595Z,10.67
2016-10-22T11:08:07.151Z,10.68
2016-10-22T11:09:07.762Z,10.63
2016-10-22T11:10:07.308Z,10.68
2016-10-22T11:11:07.862Z,10.82
2016-10-22T11:12:07.475Z,10.96
2016-10-22T11:13:07.845Z,10.88
2016-10-22T11:14:07.525Z,10.82
2016-10-22T11:15:07.178Z,10.81
2016-10-22T11:16:07.792Z,10.88
2016-10-22T11:17:07.632Z,10.79
2016-10-22T11:18:07.590Z,10.67
2016-10-22T11:19:07.232Z,10.65
2016-10-22T11:20:07.752Z,10.76
2016-10-22T11:21:07.506Z,10.88
2016-10-22T11:22:08.069Z,10.84
2016-10-22T11:23:07.625Z,10.87
2016-10-22T11:24:07.243Z,11.01
2016-10-22T11:25:07.877Z,11.10
2016-10-22T11:26:07.485Z,11.13
2016-10-22T11:27:08.140Z,11.13
2016-10-22T11:28:08.162Z,10.88
2016-10-22T11:29:07.843Z,10.93
2016-10-22T11:30:07.707Z,11.02
2016-10-22T11:31:08.147Z,10.96
2016-10-22T11:32:07.490Z,10.86
2016-10-22T11:33:07.848Z,10.81
2016-10-22T11:34:07.415Z,10.90
2016-10-22T11:35:08.027Z,11.02
2016-10-22T11:36:07.572Z,11.07
2016-10-22T11:37:08.166Z,11.08
2016-10-22T11:38:07.856Z,10.86
2016-10-22T11:39:07.498Z,10.72
2016-10-22T11:40:08.110Z,10.79
2016-10-22T11:41:07.528Z,10.79
2016-10-22T11:42:08.237Z,10.62
2016-10-22T11:43:07.730Z,10.71
2016-10-22T11:44:07.342Z,10.75
2016-10-22T11:45:07.883Z,10.77
2016-10-22T11:46:07.391Z,10.71
2016-10-22T11:47:07.882Z,10.69
2016-10-22T11:48:07.333Z,10.41
2016-10-22T11:49:07.402Z,10.47
2016-10-22T11:50:07.913Z,10.30
2016-10-22T11:51:07.476Z,10.33
2016-10-22T11:52:08.318Z,10.38
2016-10-22T11:53:07.802Z,10.32
2016-10-22T11:54:07.354Z,10.37
2016-10-22T11:55:07.985Z,10.26
2016-10-22T11:56:07.565Z,10.22
2016-10-22T11:57:07.107Z,10.30
2016-10-22T11:58:07.679Z,10.22
2016-10-22T11:59:07.329Z,10.25
2016-10-22T12:00:07.968Z,10.25
2016-10-22T12:01:07.601Z,10.17
2016-10-22T12:02:07.254Z,10.13
2016-10-22T12:03:07.804Z,10.15
2016-10-22T12:04:07.421Z,10.26
2016-10-22T12:05:08.141Z,10.33
2016-10-22T12:06:07.871Z,10.32
2016-10-22T12:07:07.586Z,10.28
2016-10-22T12:08:07.250Z,10.34
2016-10-22T12:09:07.923Z,10.40
2016-10-22T12:10:07.598Z,10.50
2016-10-22T12:11:07.089Z,10.55
2016-10-22T12:12:07.742Z,10.58
2016-10-22T12:13:07.602Z,10.58
2016-10-22T12:14:07.468Z,10.65
2016-10-22T12:15:08.121Z,10.64
2016-10-22T12:16:07.664Z,10.68
2016-10-22T12:17:07.289Z,10.73
2016-10-22T12:18:08.054Z,10.65
2016-10-22T12:19:07.660Z,10.75
2016-10-22T12:20:07.117Z,10.64
2016-10-22T12:21:07.752Z,10.60
2016-10-22T12:22:07.258Z,10.60
2016-10-22T12:23:08.383Z,10.72
2016-10-22T12:24:08.220Z,10.78
2016-10-22T12:25:07.893Z,10.78
2016-10-22T12:26:08.095Z,10.77
2016-10-22T12:27:07.698Z,10.74
2016-10-22T12:28:07.288Z,10.73
2016-10-22T12:29:07.829Z,10.73
2016-10-22T12:30:07.420Z,10.81
2016-10-22T12:31:07.883Z,10.79
2016-10-22T12:32:07.419Z,10.78
2016-10-22T12:33:08.016Z,10.86
2016-10-22T12:34:07.629Z,10.87
2016-10-22T12:35:07.493Z,10.94
2016-10-22T12:36:08.051Z,10.98
2016-10-22T12:37:07.689Z,10.93
2016-10-22T12:38:07.168Z,10.95
2016-10-22T12:39:08.604Z,10.95
2016-10-22T12:40:07.219Z,10.95
2016-10-22T12:41:07.732Z,11.00
2016-10-22T12:42:07.344Z,10.99
2016-10-22T12:43:07.968Z,10.79
2016-10-22T12:44:07.548Z,10.92
2016-10-22T12:45:07.709Z,11.00
2016-10-22T12:46:07.430Z,11.02
2016-10-22T12:47:08.429Z,10.95
2016-10-22T12:48:08.485Z,11.05
2016-10-22T12:49:08.051Z,11.07
2016-10-22T12:50:07.577Z,10.99
2016-10-22T12:51:08.150Z,11.02
2016-10-22T12:52:07.696Z,11.07
2016-10-22T12:53:07.300Z,11.13
2016-10-22T12:54:07.851Z,11.14
2016-10-22T12:55:07.380Z,11.16
2016-10-22T12:56:07.958Z,11.14
2016-10-22T12:57:07.465Z,11.20
2016-10-22T12:58:08.070Z,11.24
2016-10-22T12:59:07.538Z,11.32
2016-10-22T13:00:08.018Z,11.11
2016-10-22T13:01:07.572Z,11.20
2016-10-22T13:02:07.233Z,11.31
2016-10-22T13:03:07.827Z,11.36
2016-10-22T13:04:07.482Z,11.34
2016-10-22T13:05:08.112Z,11.40
2016-10-22T13:06:07.680Z,11.44
2016-10-22T13:07:07.254Z,11.53
2016-10-22T13:08:07.818Z,11.55
2016-10-22T13:09:07.363Z,11.64
2016-10-22T13:10:08.016Z,11.48
2016-10-22T13:11:07.662Z,11.55
2016-10-22T13:12:07.211Z,11.57